createdAt,value
2019-03-05T00:01:17.288Z,5.00
2019-03-05T00:03:45.112Z,5.00
2019-03-05T00:06:14.074Z,5.00
2019-03-05T00:08:42.263Z,5.00
2019-03-05T00:11:10.801Z,5.10
2019-03-05T00:13:38.595Z,5.20
2019-03-05T00:16:06.398Z,5.20
2019-03-05T00:18:34.135Z,5.20
2019-03-05T00:21:01.746Z,5.20
2019-03-05T00:23:48.146Z,5.20
2019-03-05T00:26:18.052Z,5.20
2019-03-05T00:29:10.301Z,5.20
2019-03-05T00:31:38.287Z,5.20
2019-03-05T00:34:45.151Z,5.20
2019-03-05T00:37:28.564Z,5.20
2019-03-05T00:40:13.765Z,5.20
2019-03-05T00:43:24.186Z,5.10
2019-03-05T00:46:35.025Z,5.00
2019-03-05T00:49:43.152Z,5.00
2019-03-05T00:52:54.961Z,5.10
2019-03-05T00:55:42.330Z,5.10
2019-03-05T00:58:46.932Z,5.00
2019-03-05T01:01:38.242Z,5.00
2019-03-05T01:04:39.949Z,5.00
2019-03-05T01:07:08.846Z,4.90
2019-03-05T01:09:36.554Z,4.80
2019-03-05T01:12:05.543Z,4.90
2019-03-05T01:14:34.239Z,4.90
2019-03-05T01:17:06.007Z,4.90
2019-03-05T01:19:33.693Z,4.90
2019-03-05T01:22:01.575Z,4.80
2019-03-05T01:24:29.218Z,4.80
2019-03-05T01:26:57.171Z,4.80
2019-03-05T01:29:25.158Z,4.70
2019-03-05T01:32:12.514Z,4.70
2019-03-05T01:34:46.229Z,4.60
2019-03-05T01:37:16.679Z,4.60
2019-03-05T01:40:07.139Z,4.60
2019-03-05T01:42:35.096Z,4.60
2019-03-05T01:45:03.796Z,4.60
2019-03-05T01:47:31.755Z,4.50
2019-03-05T01:49:59.635Z,4.50
2019-03-05T01:52:28.012Z,4.50
2019-03-05T01:54:56.359Z,4.50
2019-03-05T01:57:24.135Z,4.50
2019-03-05T02:00:04.150Z,4.50
2019-03-05T02:02:32.156Z,4.50
2019-03-05T02:04:59.832Z,4.50
2019-03-05T02:07:27.609Z,4.50
2019-03-05T02:09:55.854Z,4.50
2019-03-05T02:12:23.525Z,4.60
2019-03-05T02:14:51.508Z,4.60
2019-03-05T02:17:25.497Z,4.60
2019-03-05T02:19:53.159Z,4.60
2019-03-05T02:22:35.703Z,4.60
2019-03-05T02:25:19.163Z,4.60
2019-03-05T02:28:02.588Z,4.60
2019-03-05T02:31:09.044Z,4.60
2019-03-05T02:33:45.293Z,4.60
2019-03-05T02:36:23.202Z,4.60
2019-03-05T02:39:26.932Z,4.50
2019-03-05T02:42:29.804Z,4.50
2019-03-05T02:45:34.958Z,4.50
2019-03-05T02:48:33.834Z,4.40
2019-03-05T02:51:45.307Z,4.40
2019-03-05T02:54:46.469Z,4.50
2019-03-05T02:57:13.134Z,4.50
2019-03-05T02:59:40.946Z,4.50
2019-03-05T03:02:26.999Z,4.50
2019-03-05T03:05:16.395Z,4.50
2019-03-05T03:07:55.182Z,4.60
2019-03-05T03:10:33.014Z,4.40
2019-03-05T03:13:00.795Z,4.50
2019-03-05T03:15:28.421Z,4.50
2019-03-05T03:18:03.253Z,4.60
2019-03-05T03:20:30.979Z,4.60
2019-03-05T03:22:58.632Z,4.60
2019-03-05T03:25:26.372Z,4.50
2019-03-05T03:27:54.219Z,4.50
2019-03-05T03:30:23.511Z,4.50
2019-03-05T03:32:51.488Z,4.50
2019-03-05T03:35:19.111Z,4.50
2019-03-05T03:37:46.912Z,4.50
2019-03-05T03:40:16.812Z,4.50
2019-03-05T03:42:44.483Z,4.50
2019-03-05T03:45:14.282Z,4.50
2019-03-05T03:47:43.284Z,4.40
2019-03-05T03:50:11.020Z,4.40
2019-03-05T03:52:38.664Z,4.30
2019-03-05T03:55:06.953Z,4.30
2019-03-05T03:57:34.649Z,4.20
2019-03-05T04:00:09.439Z,4.20
2019-03-05T04:02:37.175Z,4.30
2019-03-05T04:05:05.208Z,4.20
2019-03-05T04:07:33.050Z,4.20
2019-03-05T04:10:00.722Z,3.50
2019-03-05T04:12:28.379Z,2.80
2019-03-05T04:14:56.069Z,2.50
2019-03-05T04:17:24.375Z,2.30
2019-03-05T04:19:52.118Z,2.20
2019-03-05T04:22:22.059Z,2.30
2019-03-05T04:24:49.942Z,2.30
2019-03-05T04:27:17.579Z,2.30
2019-03-05T04:29:48.320Z,2.40
2019-03-05T04:32:16.045Z,2.80
2019-03-05T04:34:44.819Z,3.00
2019-03-05T04:37:12.434Z,3.30
2019-03-05T04:39:40.646Z,3.30
2019-03-05T04:42:08.274Z,3.30
2019-03-05T04:44:59.760Z,3.20
2019-03-05T04:47:27.442Z,3.20
2019-03-05T04:50:32.469Z,3.20
2019-03-05T04:53:21.392Z,3.20
2019-03-05T04:56:07.461Z,3.20
2019-03-05T04:58:44.839Z,3.30
2019-03-05T05:01:14.363Z,3.40
2019-03-05T05:03:42.000Z,3.40
2019-03-05T05:06:25.553Z,3.50
2019-03-05T05:08:56.462Z,3.60
2019-03-05T05:11:24.164Z,3.60
2019-03-05T05:13:54.652Z,3.60
2019-03-05T05:16:24.603Z,3.80
2019-03-05T05:18:52.342Z,4.00
2019-03-05T05:21:20.300Z,4.00
2019-03-05T05:23:49.172Z,4.00
2019-03-05T05:26:17.856Z,3.90
2019-03-05T05:28:45.896Z,3.90
2019-03-05T05:31:13.560Z,4.00
2019-03-05T05:33:41.425Z,3.90
2019-03-05T05:36:28.471Z,4.00
2019-03-05T05:39:09.462Z,3.90
2019-03-05T05:41:37.833Z,3.90
2019-03-05T05:44:05.656Z,3.80
2019-03-05T05:46:37.959Z,3.90
2019-03-05T05:49:05.699Z,3.90
2019-03-05T05:51:44.873Z,3.90
2019-03-05T05:54:14.228Z,3.90
2019-03-05T05:56:41.933Z,3.90
2019-03-05T05:59:10.617Z,3.90
2019-03-05T06:01:39.388Z,3.90
2019-03-05T06:04:08.751Z,3.90
2019-03-05T06:06:36.320Z,3.90
2019-03-05T06:09:06.974Z,3.90
2019-03-05T06:11:39.714Z,3.90
2019-03-05T06:14:09.055Z,3.90
2019-03-05T06:16:36.695Z,4.00
2019-03-05T06:19:07.487Z,4.00
2019-03-05T06:21:36.112Z,4.10
2019-03-05T06:24:04.799Z,4.00
2019-03-05T06:26:33.981Z,4.10
2019-03-05T06:29:02.548Z,4.10
2019-03-05T06:31:30.339Z,4.20
2019-03-05T06:34:10.676Z,4.10
2019-03-05T06:37:19.078Z,4.10
2019-03-05T06:39:47.190Z,4.00
2019-03-05T06:42:14.955Z,4.10
2019-03-05T06:44:42.669Z,4.10
2019-03-05T06:47:12.667Z,4.20
2019-03-05T06:49:40.522Z,4.20
2019-03-05T06:52:08.315Z,4.10
2019-03-05T06:54:36.151Z,4.20
2019-03-05T06:57:05.073Z,4.20
2019-03-05T06:59:33.408Z,4.20
2019-03-05T07:02:02.852Z,4.30
2019-03-05T07:04:30.524Z,4.20
2019-03-05T07:06:58.474Z,4.20
2019-03-05T07:10:01.398Z,4.20
2019-03-05T07:13:11.086Z,4.10
2019-03-05T07:16:08.806Z,4.30
2019-03-05T07:19:22.166Z,4.40
2019-03-05T07:22:31.465Z,4.40
2019-03-05T07:25:10.409Z,4.40
2019-03-05T07:27:46.166Z,4.50
2019-03-05T07:30:24.481Z,4.60
2019-03-05T07:32:53.325Z,4.60
2019-03-05T07:35:26.040Z,4.60
2019-03-05T07:37:53.695Z,4.60
2019-03-05T07:40:22.530Z,4.70
2019-03-05T07:42:53.475Z,4.70
2019-03-05T07:45:25.321Z,4.70
2019-03-05T07:47:53.267Z,4.80
2019-03-05T07:50:23.785Z,4.80
2019-03-05T07:53:02.228Z,4.90
2019-03-05T07:55:21.489Z,4.90
2019-03-05T07:58:15.456Z,5.00
2019-03-05T08:00:52.082Z,5.10
2019-03-05T08:03:23.832Z,5.20
2019-03-05T08:06:01.645Z,5.10
2019-03-05T08:09:06.797Z,5.20
2019-03-05T08:11:53.169Z,5.30
2019-03-05T08:14:48.323Z,5.40
2019-03-05T08:17:37.984Z,5.40
2019-03-05T08:20:34.280Z,5.40
2019-03-05T08:23:01.837Z,5.70
2019-03-05T08:25:55.650Z,5.50
2019-03-05T08:28:20.626Z,5.60
2019-03-05T08:31:20.514Z,5.70
2019-03-05T08:34:09.354Z,5.80
2019-03-05T08:36:52.794Z,5.80
2019-03-05T08:39:35.311Z,5.70
2019-03-05T08:42:07.162Z,5.80
2019-03-05T08:44:37.285Z,5.60
2019-03-05T08:47:08.078Z,5.60
2019-03-05T08:49:37.572Z,5.50
2019-03-05T08:52:05.663Z,5.50
2019-03-05T08:54:42.120Z,5.40
2019-03-05T08:57:09.766Z,5.20
2019-03-05T08:59:51.366Z,5.00
2019-03-05T09:02:48.989Z,4.90
2019-03-05T09:05:18.207Z,4.90
2019-03-05T09:08:01.962Z,4.80
2019-03-05T09:10:47.604Z,4.70
2019-03-05T09:13:32.687Z,4.70
2019-03-05T09:16:01.383Z,4.70
2019-03-05T09:18:31.475Z,4.60
2019-03-05T09:21:06.740Z,4.50
2019-03-05T09:23:34.526Z,4.50
2019-03-05T09:26:04.612Z,4.50
2019-03-05T09:28:32.820Z,4.50
2019-03-05T09:31:00.591Z,4.50
2019-03-05T09:33:28.219Z,4.50
2019-03-05T09:36:04.583Z,4.50
2019-03-05T09:38:34.045Z,4.60
2019-03-05T09:41:29.481Z,4.50
2019-03-05T09:44:12.394Z,4.40
2019-03-05T09:46:52.908Z,4.40
2019-03-05T09:49:31.401Z,4.40
2019-03-05T09:52:25.081Z,4.40
2019-03-05T09:55:06.788Z,4.30
2019-03-05T09:57:47.553Z,4.30
2019-03-05T10:00:17.574Z,4.30
2019-03-05T10:02:45.700Z,4.40
2019-03-05T10:05:14.211Z,4.30
2019-03-05T10:07:44.744Z,4.40
2019-03-05T10:10:22.824Z,4.40
2019-03-05T10:12:50.511Z,4.50
2019-03-05T10:15:32.786Z,4.50
2019-03-05T10:18:12.670Z,4.40
2019-03-05T10:20:47.761Z,4.50
2019-03-05T10:23:35.170Z,4.40
2019-03-05T10:26:18.355Z,4.50
2019-03-05T10:28:49.621Z,4.40
2019-03-05T10:31:29.091Z,4.40
2019-03-05T10:34:05.968Z,4.40
2019-03-05T10:36:51.129Z,4.40
2019-03-05T10:39:49.570Z,4.30
2019-03-05T10:42:21.015Z,4.30
2019-03-05T10:44:49.647Z,4.10
2019-03-05T10:47:22.521Z,4.00
2019-03-05T10:50:16.435Z,4.10
2019-03-05T10:53:04.720Z,4.10
2019-03-05T10:55:34.284Z,4.10
2019-03-05T10:58:02.216Z,4.00
2019-03-05T11:00:34.175Z,4.00
2019-03-05T11:03:03.439Z,4.20
2019-03-05T11:05:36.374Z,4.10
2019-03-05T11:08:07.584Z,4.10
2019-03-05T11:10:41.282Z,4.20
2019-03-05T11:13:11.750Z,4.20
2019-03-05T11:15:41.992Z,4.20
2019-03-05T11:18:29.462Z,4.30
2019-03-05T11:21:04.816Z,4.30
2019-03-05T11:23:56.738Z,4.30
2019-03-05T11:26:25.153Z,4.30
2019-03-05T11:28:56.430Z,4.40
2019-03-05T11:31:36.124Z,4.30
2019-03-05T11:34:05.352Z,4.40
2019-03-05T11:36:33.562Z,4.40
2019-03-05T11:39:02.303Z,4.50
2019-03-05T11:41:30.474Z,4.50
2019-03-05T11:44:01.119Z,4.60
2019-03-05T11:46:42.030Z,4.50
2019-03-05T11:49:26.107Z,4.50
2019-03-05T11:52:07.212Z,4.40
2019-03-05T11:54:52.267Z,4.30
2019-03-05T11:57:21.348Z,4.40
2019-03-05T11:59:49.579Z,4.30
2019-03-05T12:02:26.869Z,4.30
2019-03-05T12:04:55.777Z,4.40
2019-03-05T12:07:36.572Z,4.50
2019-03-05T12:10:23.891Z,4.50
2019-03-05T12:13:04.336Z,4.60
2019-03-05T12:15:36.888Z,4.60
2019-03-05T12:18:04.817Z,4.50
2019-03-05T12:20:33.115Z,4.50
2019-03-05T12:23:02.320Z,4.60
2019-03-05T12:25:35.928Z,4.50
2019-03-05T12:28:26.352Z,4.60
2019-03-05T12:31:25.958Z,4.60
2019-03-05T12:34:13.940Z,4.50
2019-03-05T12:36:47.752Z,4.50
2019-03-05T12:39:31.096Z,4.50
2019-03-05T12:42:28.234Z,4.60
2019-03-05T12:45:11.999Z,4.70
2019-03-05T12:47:47.466Z,4.60
2019-03-05T12:50:35.398Z,4.70
2019-03-05T12:53:09.526Z,4.60
2019-03-05T12:55:37.635Z,4.70
2019-03-05T12:58:12.824Z,4.80
2019-03-05T13:00:45.342Z,4.60
2019-03-05T13:03:13.913Z,4.80
2019-03-05T13:05:50.066Z,4.90
2019-03-05T13:08:38.885Z,5.00
2019-03-05T13:11:24.130Z,4.80
2019-03-05T13:14:05.668Z,4.90
2019-03-05T13:16:48.707Z,4.90
2019-03-05T13:19:23.601Z,4.90
2019-03-05T13:21:56.883Z,4.90
2019-03-05T13:24:33.426Z,4.70
2019-03-05T13:27:13.394Z,4.50
2019-03-05T13:29:41.206Z,4.60
2019-03-05T13:32:09.199Z,4.40
2019-03-05T13:34:46.065Z,4.50
2019-03-05T13:37:28.445Z,4.50
2019-03-05T13:40:04.653Z,4.50
2019-03-05T13:42:34.952Z,4.60
2019-03-05T13:45:05.309Z,4.60
2019-03-05T13:47:37.207Z,4.60
2019-03-05T13:50:48.786Z,4.70
2019-03-05T13:53:45.027Z,4.80
2019-03-05T13:56:53.722Z,4.90
2019-03-05T13:59:56.423Z,4.80
2019-03-05T14:02:31.782Z,5.20
2019-03-05T14:05:24.307Z,5.40
2019-03-05T14:08:41.758Z,5.50
2019-03-05T14:11:29.066Z,5.70
2019-03-05T14:14:01.081Z,5.70
2019-03-05T14:16:55.889Z,5.60
2019-03-05T14:19:39.084Z,5.60
2019-03-05T14:22:07.094Z,5.20
2019-03-05T14:24:35.275Z,5.40
2019-03-05T14:27:04.866Z,5.30
2019-03-05T14:29:33.777Z,5.40
2019-03-05T14:32:03.698Z,5.40
2019-03-05T14:34:44.081Z,5.50
2019-03-05T14:37:20.341Z,5.50
2019-03-05T14:39:49.230Z,5.50
2019-03-05T14:42:20.263Z,5.40
2019-03-05T14:44:47.994Z,5.30
2019-03-05T14:47:16.213Z,5.40
2019-03-05T14:49:43.938Z,5.20
2019-03-05T14:52:26.543Z,5.30
2019-03-05T14:55:06.601Z,5.10
2019-03-05T14:57:57.076Z,4.70
2019-03-05T15:00:39.902Z,4.70
2019-03-05T15:03:07.928Z,4.90
2019-03-05T15:05:37.243Z,4.60
2019-03-05T15:08:20.294Z,4.70
2019-03-05T15:11:02.521Z,4.60
2019-03-05T15:13:36.633Z,4.60
2019-03-05T15:16:04.203Z,4.60
2019-03-05T15:18:42.909Z,4.60
2019-03-05T15:21:37.281Z,4.70
2019-03-05T15:24:15.011Z,4.60
2019-03-05T15:26:54.166Z,4.70
2019-03-05T15:29:22.771Z,4.70
2019-03-05T15:31:53.438Z,4.70
2019-03-05T15:34:21.169Z,4.60
2019-03-05T15:37:04.796Z,4.80
2019-03-05T15:39:49.357Z,4.90
2019-03-05T15:42:32.128Z,4.90
2019-03-05T15:45:19.105Z,4.80
2019-03-05T15:47:47.262Z,4.90
2019-03-05T15:50:18.261Z,4.90
2019-03-05T15:52:49.460Z,4.90
2019-03-05T15:55:24.088Z,4.80
2019-03-05T15:58:12.341Z,4.80
2019-03-05T16:01:04.247Z,4.70
2019-03-05T16:03:54.664Z,4.90
2019-03-05T16:06:22.880Z,4.90
2019-03-05T16:08:53.566Z,4.90
2019-03-05T16:11:21.335Z,4.80
2019-03-05T16:13:56.537Z,4.80
2019-03-05T16:16:43.228Z,4.70
2019-03-05T16:19:27.871Z,4.50
2019-03-05T16:22:14.286Z,4.50
2019-03-05T16:25:09.897Z,4.60
2019-03-05T16:37:57.779Z,4.60
2019-03-05T16:40:40.993Z,4.70
2019-03-05T16:43:29.767Z,4.80
2019-03-05T16:46:34.005Z,4.80
2019-03-05T16:49:26.101Z,4.70
2019-03-05T16:52:10.656Z,4.80
2019-03-05T16:55:11.092Z,4.70
2019-03-05T16:58:03.140Z,4.70
2019-03-05T17:01:07.688Z,4.70
2019-03-05T17:03:53.629Z,4.80
2019-03-05T17:06:42.834Z,4.60
2019-03-05T17:09:34.709Z,4.70
2019-03-05T17:12:04.044Z,4.80
2019-03-05T17:14:34.802Z,4.80
2019-03-05T17:17:13.528Z,4.70
2019-03-05T17:19:44.086Z,4.80
2019-03-05T17:22:13.794Z,4.70
2019-03-05T17:24:45.521Z,4.80
2019-03-05T17:27:41.421Z,4.80
2019-03-05T17:30:14.442Z,4.80
2019-03-05T17:32:52.177Z,4.70
2019-03-05T17:35:20.314Z,4.70
2019-03-05T17:37:49.239Z,4.60
2019-03-05T17:40:17.067Z,4.60
2019-03-05T17:42:50.647Z,4.60
2019-03-05T17:45:20.151Z,4.60
2019-03-05T17:47:47.967Z,4.60
2019-03-05T17:50:30.964Z,4.50
2019-03-05T17:53:00.457Z,4.50
2019-03-05T17:55:34.595Z,4.40
2019-03-05T17:58:11.079Z,4.50
2019-03-05T18:00:43.794Z,4.60
2019-03-05T18:03:24.038Z,4.50
2019-03-05T18:06:20.192Z,4.40
2019-03-05T18:09:03.550Z,4.30
2019-03-05T18:11:45.550Z,4.30
2019-03-05T18:14:38.593Z,4.30
2019-03-05T18:17:41.023Z,4.30
2019-03-05T18:20:23.485Z,4.40
2019-03-05T18:22:54.787Z,4.40
2019-03-05T18:25:29.929Z,4.40
2019-03-05T18:28:08.091Z,4.50
2019-03-05T18:30:36.331Z,4.50
2019-03-05T18:33:09.277Z,4.40
2019-03-05T18:35:37.512Z,4.40
2019-03-05T18:38:06.822Z,4.50
2019-03-05T18:40:37.632Z,4.40
2019-03-05T18:43:22.202Z,4.40
2019-03-05T18:46:09.338Z,4.40
2019-03-05T18:48:48.265Z,4.30
2019-03-05T18:51:18.309Z,4.20
2019-03-05T18:53:46.299Z,4.20
2019-03-05T18:56:18.437Z,4.20
2019-03-05T18:58:53.728Z,4.10
2019-03-05T19:01:28.215Z,4.10
2019-03-05T19:04:21.427Z,4.10
2019-03-05T19:07:01.080Z,4.10
2019-03-05T19:09:34.582Z,4.10
2019-03-05T19:12:08.627Z,4.00
2019-03-05T19:14:42.443Z,4.00
2019-03-05T19:17:28.396Z,3.90
2019-03-05T19:20:10.544Z,3.90
2019-03-05T19:22:48.199Z,3.80
2019-03-05T19:25:37.195Z,3.70
2019-03-05T19:28:14.233Z,3.70
2019-03-05T19:30:53.448Z,3.70
2019-03-05T19:33:23.690Z,3.60
2019-03-05T19:36:24.343Z,3.60
2019-03-05T19:38:58.624Z,3.50
2019-03-05T19:41:33.290Z,3.50
2019-03-05T19:44:17.076Z,3.50
2019-03-05T19:47:08.375Z,3.50
2019-03-05T19:49:40.566Z,3.40
2019-03-05T19:52:09.018Z,3.40
2019-03-05T19:54:56.108Z,3.30
2019-03-05T19:57:30.670Z,3.30
2019-03-05T19:59:58.691Z,3.20
2019-03-05T20:02:27.830Z,3.20
2019-03-05T20:05:03.960Z,3.20
2019-03-05T20:07:49.195Z,3.20
2019-03-05T20:10:21.328Z,3.20
2019-03-05T20:12:49.275Z,3.20
2019-03-05T20:15:21.906Z,3.10
2019-03-05T20:17:58.690Z,3.10
2019-03-05T20:20:31.787Z,3.10
2019-03-05T20:23:01.247Z,3.10
2019-03-05T20:25:45.556Z,3.00
2019-03-05T20:28:13.704Z,3.00
2019-03-05T20:30:59.454Z,3.00
2019-03-05T20:33:36.759Z,3.00
2019-03-05T20:36:09.219Z,3.00
2019-03-05T20:38:47.242Z,2.90
2019-03-05T20:41:15.476Z,3.00
2019-03-05T20:43:46.033Z,2.90
2019-03-05T20:46:22.918Z,3.00
2019-03-05T20:48:51.754Z,2.90
2019-03-05T20:51:22.517Z,2.90
2019-03-05T20:53:51.237Z,2.80
2019-03-05T20:56:24.632Z,2.90
2019-03-05T20:59:03.861Z,2.90
2019-03-05T21:01:34.185Z,2.80
2019-03-05T21:04:04.409Z,2.90
2019-03-05T21:06:34.818Z,2.80
2019-03-05T21:09:20.773Z,2.80
2019-03-05T21:11:56.834Z,2.70
2019-03-05T21:14:35.224Z,2.70
2019-03-05T21:17:19.228Z,2.70
2019-03-05T21:19:55.218Z,2.60
2019-03-05T21:22:23.349Z,2.70
2019-03-05T21:24:51.716Z,2.60
2019-03-05T21:27:19.859Z,2.50
2019-03-05T21:29:52.430Z,2.50
2019-03-05T21:32:24.139Z,2.60
2019-03-05T21:35:00.326Z,2.80
2019-03-05T21:37:28.196Z,2.90
2019-03-05T21:39:59.645Z,3.10
2019-03-05T21:42:28.480Z,3.10
2019-03-05T21:44:56.325Z,3.10
2019-03-05T21:47:29.127Z,3.10
2019-03-05T21:50:00.782Z,3.00
2019-03-05T21:52:32.071Z,3.00
2019-03-05T21:55:04.305Z,2.90
2019-03-05T21:57:35.703Z,3.00
2019-03-05T22:00:04.954Z,2.90
2019-03-05T22:02:33.447Z,2.80
2019-03-05T22:05:06.272Z,2.80
2019-03-05T22:07:37.343Z,2.80
2019-03-05T22:10:06.108Z,2.70
2019-03-05T22:12:36.815Z,2.80
2019-03-05T22:15:12.553Z,2.80
2019-03-05T22:17:40.441Z,2.80
2019-03-05T22:20:20.758Z,2.80
2019-03-05T22:22:50.427Z,2.80
2019-03-05T22:25:18.889Z,2.90
2019-03-05T22:27:47.128Z,2.90
2019-03-05T22:30:22.432Z,2.90
2019-03-05T22:32:52.043Z,2.90
2019-03-05T22:35:19.797Z,2.90
2019-03-05T22:37:48.895Z,2.80
2019-03-05T22:40:22.144Z,2.80
2019-03-05T22:42:50.482Z,2.80
2019-03-05T22:45:22.824Z,2.70
2019-03-05T22:47:51.856Z,2.80
2019-03-05T22:50:20.282Z,2.80
2019-03-05T22:52:51.516Z,2.90
2019-03-05T22:55:19.608Z,3.00
2019-03-05T22:57:47.404Z,3.00
2019-03-05T23:00:55.330Z,3.00
2019-03-05T23:03:23.595Z,3.00
2019-03-05T23:05:51.521Z,3.00
2019-03-05T23:08:27.692Z,3.00
2019-03-05T23:11:08.273Z,3.00
2019-03-05T23:13:40.058Z,3.00
2019-03-05T23:16:08.261Z,3.00
2019-03-05T23:18:38.590Z,3.00
2019-03-05T23:21:07.705Z,3.00
2019-03-05T23:23:35.435Z,3.00
2019-03-05T23:26:03.534Z,3.00
2019-03-05T23:28:34.808Z,3.10
2019-03-05T23:31:02.483Z,3.10
2019-03-05T23:33:31.788Z,3.20
2019-03-05T23:36:00.669Z,3.20
2019-03-05T23:38:28.552Z,3.20
2019-03-05T23:40:56.330Z,3.30
2019-03-05T23:43:24.166Z,3.30
2019-03-05T23:45:54.639Z,3.30
2019-03-05T23:48:22.332Z,3.40
2019-03-05T23:50:50.747Z,3.40
2019-03-05T23:53:24.480Z,3.40
2019-03-05T23:55:52.307Z,3.50
2019-03-05T23:58:23.214Z,3.60
